ADDS METAR Data INFO
IDs: Format: Raw Decoded Include TAF

Data at: 2112 UTC 22 Oct 2017

KCPC 222105Z AUTO 11007KT 10SM SCT043 OVC050 26/17 A3024 RMK AO2 T02610165
KCPC 222045Z AUTO 09007KT 10SM SCT044 OVC050 27/16 A3023 RMK AO2 T02650163
KCPC 222025Z AUTO 11007KT 10SM BKN043 OVC050 27/17 A3024 RMK AO2 T02660166
KCPC 222005Z AUTO 08004KT 10SM BKN045 OVC050 27/17 A3024 RMK AO2 T02670168
KCPC 221945Z AUTO 08005KT 10SM SCT043 OVC055 26/17 A3025 RMK AO2 T02630167
KCPC 221925Z AUTO 11005KT 10SM SCT055 26/17 A3025 RMK AO2 T02620166
KCPC 221905Z AUTO 12007KT 10SM SCT042 SCT055 27/16 A3026 RMK AO2 T02660163
KCPC 221845Z AUTO 12007KT 10SM SCT042 27/16 A3026 RMK AO2 T02670164
KCPC 221825Z AUTO 11007KT 10SM SCT042 27/17 A3026 RMK AO2 T02710167
KCPC 221805Z AUTO 10006KT 10SM CLR 27/16 A3027 RMK AO2 T02650163
KCPC 221745Z AUTO 12006KT 10SM SCT039 SCT048 26/16 A3029 RMK AO2 T02600161
KCPC 221725Z AUTO 11007KT 10SM SCT039 26/16 A3030 RMK AO2 T02570160
KCPC 221705Z AUTO 08006KT 10SM SCT039 26/17 A3031 RMK AO2 T02560165
KCPC 221645Z AUTO 08007KT 10SM CLR 25/17 A3032 RMK AO2 T02530167
KCPC 221625Z AUTO 05007KT 10SM CLR 25/17 A3033 RMK AO2 T02500167
KCPC 221605Z AUTO 09005KT 10SM CLR 25/16 A3033 RMK AO2 T02470163
KCPC 221545Z AUTO 10008KT 10SM CLR 24/16 A3034 RMK AO2 T02400157
KCPC 221525Z AUTO 08008KT 10SM CLR 24/16 A3034 RMK AO2 T02400155
KCPC 221505Z AUTO 06007KT 10SM CLR 24/15 A3034 RMK AO2 T02350153
KCPC 221445Z AUTO 06008KT 10SM CLR 22/15 A3034 RMK AO2 T02230145
KCPC 221425Z AUTO 06006KT 10SM CLR 22/15 A3034 RMK AO2 T02150146
KCPC 221405Z AUTO 06004KT 10SM CLR 20/15 A3034 RMK AO2 T02030146
KCPC 221345Z AUTO 07003KT 10SM CLR 19/15 A3034 RMK AO2 T01870148
KCPC 221325Z AUTO 05003KT 10SM CLR 17/16 A3034 RMK AO2 T01730155
KCPC 221245Z AUTO 00000KT 10SM CLR 16/15 A3033 RMK AO2 T01600152
KCPC 221225Z AUTO 00000KT 10SM CLR 15/15 A3033 RMK AO2 T01520148
KCPC 221205Z AUTO 00000KT 5SM BR CLR 15/14 A3033 RMK AO2 T01460142
KCPC 221145Z AUTO 00000KT 5SM BR CLR 14/14 A3032 RMK AO2 T01430140
KCPC 221125Z AUTO 00000KT 4SM BR CLR 14/14 A3031 RMK AO2 T01420138
KCPC 221105Z AUTO 00000KT 5SM BR CLR 14/14 A3031 RMK AO2 T01400136
KCPC 221045Z AUTO 00000KT 3SM BR CLR 14/13 A3030 RMK AO2 T01370133
KCPC 221025Z AUTO 00000KT 2 1/2SM BR CLR 14/14 A3030 RMK AO2 VIS 1 1/2V5 T01400136
KCPC 221005Z AUTO 00000KT 5SM BR CLR 14/14 A3030 RMK AO2 T01420138
KCPC 220945Z AUTO 00000KT 10SM CLR 14/14 A3030 RMK AO2 T01440140
KCPC 220925Z AUTO 00000KT 4SM BR CLR 14/14 A3029 RMK AO2 T01420138
KCPC 220905Z AUTO 00000KT 7SM CLR 14/14 A3029 RMK AO2 T01390135
KCPC 220845Z AUTO 00000KT 1 3/4SM BR VV007 14/14 A3029 RMK AO2 VIS 3/4V3 T01390135
KCPC 220825Z AUTO 00000KT 3SM BR CLR 14/14 A3029 RMK AO2 T01410137
KCPC 220805Z AUTO 00000KT 7SM CLR 14/14 A3030 RMK AO2 T01430139
KCPC 220745Z AUTO 00000KT 7SM CLR 14/14 A3029 RMK AO2 T01420138
KCPC 220725Z AUTO 00000KT 7SM CLR 14/14 A3029 RMK AO2 T01400135
KCPC 220705Z AUTO 00000KT 5SM BR CLR 14/14 A3030 RMK AO2 T01400136
KCPC 220645Z AUTO 00000KT 1 3/4SM BR VV007 14/14 A3031 RMK AO2 T01420139
KCPC 220625Z AUTO 00000KT 10SM CLR 14/14 A3031 RMK AO2 T01440140
KCPC 220605Z AUTO 00000KT 7SM CLR 15/14 A3031 RMK AO2 T01450141
KCPC 220545Z AUTO 00000KT 1 3/4SM BR VV007 15/14 A3031 RMK AO2 VIS 1/2V5 T01450141
KCPC 220525Z AUTO 00000KT 10SM SCT110 15/15 A3031 RMK AO2 T01520147
KCPC 220505Z AUTO 00000KT 7SM CLR 15/15 A3030 RMK AO2 T01500145
KCPC 220425Z AUTO 00000KT 10SM CLR 16/15 A3031 RMK AO2 T01550150
KCPC 220345Z AUTO 00000KT 10SM CLR 16/15 A3032 RMK AO2 T01580152
KCPC 220325Z AUTO 00000KT 10SM CLR 17/16 A3032 RMK AO2 T01670160
KCPC 220305Z AUTO 00000KT 10SM CLR 17/16 A3032 RMK AO2 T01650157
KCPC 220245Z AUTO 00000KT 10SM CLR 17/16 A3033 RMK AO2 T01650158
KCPC 220225Z AUTO 00000KT 10SM CLR 17/16 A3032 RMK AO2 T01660158
KCPC 220205Z AUTO 00000KT 10SM CLR 17/16 A3032 RMK AO2 T01700160
KCPC 220145Z AUTO 00000KT 10SM CLR 18/16 A3032 RMK AO2 T01760160
KCPC 220125Z AUTO 00000KT 10SM CLR 19/16 A3032 RMK AO2 T01860160
KCPC 220105Z AUTO 00000KT 10SM CLR 19/16 A3032 RMK AO2 T01930160
KCPC 220045Z AUTO 00000KT 10SM CLR 20/16 A3032 RMK AO2 T01950161
KCPC 220025Z AUTO 00000KT 10SM CLR 20/16 A3032 RMK AO2 T01980160
KCPC 220005Z AUTO 00000KT 10SM CLR 20/16 A3032 RMK AO2 T02000160
KCPC 212345Z AUTO 00000KT 10SM CLR 21/16 A3031 RMK AO2 T02100158
KCPC 212325Z AUTO 00000KT 10SM CLR 20/16 A3031 RMK AO2 T01970157
KCPC 212305Z AUTO 00000KT 10SM CLR 19/16 A3030 RMK AO2 T01920158
KCPC 212245Z AUTO 00000KT 10SM CLR 20/15 A3030 RMK AO2 T02020152
KCPC 212225Z AUTO 00000KT 10SM CLR 21/14 A3029 RMK AO2 T02060143
KCPC 212205Z AUTO 00000KT 10SM CLR 21/15 A3029 RMK AO2 T02110145
KCPC 212145Z AUTO 00000KT 10SM CLR 22/15 A3029 RMK AO2 T02200146
KCPC 212125Z AUTO 00000KT 10SM CLR 24/14 A3028 RMK AO2 T02370143
KCPC 212105Z AUTO 00000KT 10SM CLR 26/10 A3028 RMK AO2 T02560104
KCPC 212045Z AUTO 12003KT 10SM CLR 26/10 A3028 RMK AO2 T02610103
KCPC 212025Z AUTO 00000KT 10SM CLR 26/10 A3028 RMK AO2 T02580100
KCPC 212005Z AUTO 00000KT 10SM CLR 26/10 A3028 RMK AO2 T02590104
KCPC 211945Z AUTO 00000KT 10SM CLR 26/10 A3028 RMK AO2 T02600102
KCPC 211925Z AUTO 00000KT 10SM CLR 26/10 A3028 RMK AO2 T02580099
KCPC 211905Z AUTO 00000KT 10SM CLR 26/10 A3027 RMK AO2 T02600102
KCPC 211845Z AUTO 12004KT 10SM CLR 26/10 A3028 RMK AO2 T02580100
KCPC 211820Z AUTO 05004KT 10SM CLR 26/12 A3028 RMK AO2 T02570121
KCPC 211805Z AUTO 35003KT 10SM CLR 25/12 A3029 RMK AO2 T02520119
KCPC 211745Z AUTO 05003KT 10SM CLR 25/11 A3029 RMK AO2 T02510114
KCPC 211725Z AUTO 00000KT 10SM CLR 25/11 A3030 RMK AO2 T02490110
KCPC 211705Z AUTO 00000KT 10SM CLR 25/11 A3031 RMK AO2 T02460105
KCPC 211645Z AUTO 00000KT 10SM CLR 24/12 A3031 RMK AO2 T02430121
KCPC 211625Z AUTO 06004KT 10SM CLR 24/13 A3032 RMK AO2 T02410130
KCPC 211605Z AUTO 09004KT 10SM CLR 24/12 A3032 RMK AO2 T02360123
KCPC 211545Z AUTO 08004KT 10SM CLR 24/13 A3032 RMK AO2 T02360128
KCPC 211525Z AUTO 08003KT 10SM CLR 23/13 A3032 RMK AO2 T02300130
KCPC 211500Z AUTO 00000KT 10SM CLR 22/14 A3032 RMK AO2 T02210135
KCPC 211445Z AUTO 00000KT 10SM CLR 22/13 A3032 RMK AO2 T02190130
KCPC 211420Z AUTO 00000KT 10SM CLR 21/15 A3032 RMK AO2 T02050147
KCPC 211405Z AUTO 00000KT 10SM CLR 20/15 A3032 RMK AO2 T01960149
KCPC 211345Z AUTO 00000KT 10SM CLR 19/15 A3032 RMK AO2 T01850152
KCPC 211325Z AUTO 00000KT 10SM CLR 17/15 A3032 RMK AO2 T01710149
KCPC 211305Z AUTO 00000KT 10SM CLR 15/13 A3031 RMK AO2 T01470134
KCPC 211245Z AUTO 00000KT 10SM CLR 13/12 A3031 RMK AO2 T01330123
KCPC 211225Z AUTO 00000KT 10SM CLR 12/11 A3030 RMK AO2 T01180112
KCPC 211205Z AUTO 00000KT 10SM CLR 11/11 A3029 RMK AO2 T01100105
KCPC 211145Z AUTO 00000KT 10SM CLR 11/11 A3028 RMK AO2 T01100105
KCPC 211125Z AUTO 00000KT 10SM CLR 11/10 A3027 RMK AO2 T01080103
KCPC 211105Z AUTO 00000KT 10SM CLR 11/10 A3027 RMK AO2 T01050100
KCPC 211045Z AUTO 00000KT 10SM CLR 11/11 A3027 RMK AO2 T01100105
KCPC 211025Z AUTO 00000KT 10SM CLR 11/11 A3026 RMK AO2 T01100105
KCPC 211005Z AUTO 00000KT 10SM CLR 11/11 A3026 RMK AO2 T01120107
KCPC 210945Z AUTO 00000KT 10SM CLR 11/11 A3025 RMK AO2 T01140109
KCPC 210925Z AUTO 00000KT 10SM CLR 11/11 A3024 RMK AO2 T01140109